sensor_id;sensor_type;location;lat;lon;timestamp;temperature;humidity
7117;DHT22;3600;48.568;7.870;2022-08-03T00:00:22;21.30;99.90
7117;DHT22;3600;48.568;7.870;2022-08-03T00:02:51;21.50;99.90
7117;DHT22;3600;48.568;7.870;2022-08-03T00:05:18;21.40;99.90
7117;DHT22;3600;48.568;7.870;2022-08-03T00:07:45;21.50;99.90
7117;DHT22;3600;48.568;7.870;2022-08-03T00:10:14;21.60;99.90
7117;DHT22;3600;48.568;7.870;2022-08-03T00:12:40;21.70;99.90
7117;DHT22;3600;48.568;7.870;2022-08-03T00:15:08;21.70;99.90
7117;DHT22;3600;48.568;7.870;2022-08-03T00:17:42;21.50;99.90
7117;DHT22;3600;48.568;7.870;2022-08-03T00:20:18;21.50;99.90
7117;DHT22;3600;48.568;7.870;2022-08-03T00:22:45;21.40;99.90
7117;DHT22;3600;48.568;7.870;2022-08-03T00:25:12;21.60;99.90
7117;DHT22;3600;48.568;7.870;2022-08-03T00:27:39;21.50;99.90
7117;DHT22;3600;48.568;7.870;2022-08-03T00:30:06;21.20;99.90
7117;DHT22;3600;48.568;7.870;2022-08-03T00:32:33;21.20;99.90
7117;DHT22;3600;48.568;7.870;2022-08-03T00:35:00;20.90;99.90
7117;DHT22;3600;48.568;7.870;2022-08-03T00:37:35;20.70;99.90
7117;DHT22;3600;48.568;7.870;2022-08-03T00:40:11;20.80;99.90
7117;DHT22;3600;48.568;7.870;2022-08-03T00:43:06;20.80;99.90
7117;DHT22;3600;48.568;7.870;2022-08-03T00:45:35;20.70;99.90
7117;DHT22;3600;48.568;7.870;2022-08-03T00:48:04;20.70;99.90
7117;DHT22;3600;48.568;7.870;2022-08-03T00:50:33;20.80;99.90
7117;DHT22;3600;48.568;7.870;2022-08-03T00:53:03;20.80;99.90
7117;DHT22;3600;48.568;7.870;2022-08-03T00:55:30;20.80;99.90
7117;DHT22;3600;48.568;7.870;2022-08-03T00:57:58;20.80;99.90
7117;DHT22;3600;48.568;7.870;2022-08-03T01:00:27;20.80;99.90
7117;DHT22;3600;48.568;7.870;2022-08-03T01:02:54;20.60;99.90
7117;DHT22;3600;48.568;7.870;2022-08-03T01:05:21;20.80;99.90
7117;DHT22;3600;48.568;7.870;2022-08-03T01:13:47;20.90;99.90
7117;DHT22;3600;48.568;7.870;2022-08-03T01:16:41;20.80;99.90
7117;DHT22;3600;48.568;7.870;2022-08-03T01:19:24;20.90;99.90
7117;DHT22;3600;48.568;7.870;2022-08-03T01:25:05;20.80;99.90
7117;DHT22;3600;48.568;7.870;2022-08-03T01:30:23;20.40;99.90
7117;DHT22;3600;48.568;7.870;2022-08-03T01:33:00;20.40;99.90
7117;DHT22;3600;48.568;7.870;2022-08-03T01:35:35;20.30;99.90
7117;DHT22;3600;48.568;7.870;2022-08-03T01:38:47;20.20;99.90
7117;DHT22;3600;48.568;7.870;2022-08-03T01:41:20;20.10;99.90
7117;DHT22;3600;48.568;7.870;2022-08-03T01:43:48;20.00;99.90
7117;DHT22;3600;48.568;7.870;2022-08-03T01:46:37;20.10;99.90
7117;DHT22;3600;48.568;7.870;2022-08-03T01:49:06;20.10;99.90
7117;DHT22;3600;48.568;7.870;2022-08-03T01:51:40;20.00;99.90
7117;DHT22;3600;48.568;7.870;2022-08-03T01:54:28;20.00;99.90
7117;DHT22;3600;48.568;7.870;2022-08-03T01:56:57;20.10;99.90
7117;DHT22;3600;48.568;7.870;2022-08-03T01:59:25;20.10;99.90
7117;DHT22;3600;48.568;7.870;2022-08-03T02:01:53;20.10;99.90
7117;DHT22;3600;48.568;7.870;2022-08-03T02:04:42;20.00;99.90
7117;DHT22;3600;48.568;7.870;2022-08-03T02:07:09;19.70;99.90
7117;DHT22;3600;48.568;7.870;2022-08-03T02:09:39;19.70;99.90
7117;DHT22;3600;48.568;7.870;2022-08-03T02:12:11;19.90;99.90
7117;DHT22;3600;48.568;7.870;2022-08-03T02:14:40;19.80;99.90
7117;DHT22;3600;48.568;7.870;2022-08-03T02:17:09;20.20;99.90
7117;DHT22;3600;48.568;7.870;2022-08-03T02:19:37;20.30;99.90
7117;DHT22;3600;48.568;7.870;2022-08-03T02:22:06;20.30;99.90
7117;DHT22;3600;48.568;7.870;2022-08-03T02:24:34;20.00;99.90
7117;DHT22;3600;48.568;7.870;2022-08-03T02:27:02;19.70;99.90
7117;DHT22;3600;48.568;7.870;2022-08-03T02:29:33;19.60;99.90
7117;DHT22;3600;48.568;7.870;2022-08-03T02:32:09;19.70;99.90
7117;DHT22;3600;48.568;7.870;2022-08-03T02:34:39;19.80;99.90
7117;DHT22;3600;48.568;7.870;2022-08-03T02:37:09;19.80;99.90
7117;DHT22;3600;48.568;7.870;2022-08-03T02:39:38;19.80;99.90
7117;DHT22;3600;48.568;7.870;2022-08-03T02:42:08;20.00;99.90
7117;DHT22;3600;48.568;7.870;2022-08-03T02:44:38;19.90;99.90
7117;DHT22;3600;48.568;7.870;2022-08-03T02:47:09;19.70;99.90
7117;DHT22;3600;48.568;7.870;2022-08-03T02:49:37;19.60;99.90
7117;DHT22;3600;48.568;7.870;2022-08-03T02:52:22;19.60;99.90
7117;DHT22;3600;48.568;7.870;2022-08-03T02:54:52;19.70;99.90
7117;DHT22;3600;48.568;7.870;2022-08-03T02:57:20;19.80;99.90
7117;DHT22;3600;48.568;7.870;2022-08-03T02:59:48;19.90;99.90
7117;DHT22;3600;48.568;7.870;2022-08-03T03:02:17;19.90;99.90
7117;DHT22;3600;48.568;7.870;2022-08-03T03:04:45;19.90;99.90
7117;DHT22;3600;48.568;7.870;2022-08-03T03:07:33;19.90;99.90
7117;DHT22;3600;48.568;7.870;2022-08-03T03:10:21;19.80;99.90
7117;DHT22;3600;48.568;7.870;2022-08-03T03:12:54;19.60;99.90
7117;DHT22;3600;48.568;7.870;2022-08-03T03:15:23;19.70;99.90
7117;DHT22;3600;48.568;7.870;2022-08-03T03:17:52;19.70;99.90
7117;DHT22;3600;48.568;7.870;2022-08-03T03:20:20;19.50;99.90
7117;DHT22;3600;48.568;7.870;2022-08-03T03:22:57;19.40;99.90
7117;DHT22;3600;48.568;7.870;2022-08-03T03:25:26;19.40;99.90
7117;DHT22;3600;48.568;7.870;2022-08-03T03:27:53;19.50;99.90
7117;DHT22;3600;48.568;7.870;2022-08-03T03:30:23;19.50;99.90
7117;DHT22;3600;48.568;7.870;2022-08-03T03:32:50;19.60;99.90
7117;DHT22;3600;48.568;7.870;2022-08-03T03:35:18;19.60;99.90
7117;DHT22;3600;48.568;7.870;2022-08-03T03:37:45;19.60;99.90
7117;DHT22;3600;48.568;7.870;2022-08-03T03:40:13;19.60;99.90
7117;DHT22;3600;48.568;7.870;2022-08-03T03:42:40;19.60;99.90
7117;DHT22;3600;48.568;7.870;2022-08-03T03:45:07;19.20;99.90
7117;DHT22;3600;48.568;7.870;2022-08-03T03:47:34;19.20;99.90
7117;DHT22;3600;48.568;7.870;2022-08-03T03:50:03;19.30;99.90
7117;DHT22;3600;48.568;7.870;2022-08-03T03:52:31;19.50;99.90
7117;DHT22;3600;48.568;7.870;2022-08-03T03:54:58;19.40;99.90
7117;DHT22;3600;48.568;7.870;2022-08-03T03:57:27;19.20;99.90
7117;DHT22;3600;48.568;7.870;2022-08-03T03:59:54;19.20;99.90
7117;DHT22;3600;48.568;7.870;2022-08-03T04:02:21;19.50;99.90
7117;DHT22;3600;48.568;7.870;2022-08-03T04:04:48;19.70;99.90
7117;DHT22;3600;48.568;7.870;2022-08-03T04:07:45;19.70;99.90
7117;DHT22;3600;48.568;7.870;2022-08-03T04:11:12;19.40;99.90
7117;DHT22;3600;48.568;7.870;2022-08-03T04:13:46;19.20;99.90
7117;DHT22;3600;48.568;7.870;2022-08-03T04:16:17;19.20;99.90
7117;DHT22;3600;48.568;7.870;2022-08-03T04:18:50;19.30;99.90
7117;DHT22;3600;48.568;7.870;2022-08-03T04:21:19;19.30;99.90
7117;DHT22;3600;48.568;7.870;2022-08-03T04:23:50;19.30;99.90
7117;DHT22;3600;48.568;7.870;2022-08-03T04:26:20;19.20;99.90
7117;DHT22;3600;48.568;7.870;2022-08-03T04:28:48;19.30;99.90
7117;DHT22;3600;48.568;7.870;2022-08-03T04:31:19;19.40;99.90
7117;DHT22;3600;48.568;7.870;2022-08-03T04:33:47;19.40;99.90
7117;DHT22;3600;48.568;7.870;2022-08-03T04:36:19;19.40;99.90
7117;DHT22;3600;48.568;7.870;2022-08-03T04:39:07;19.40;99.90
7117;DHT22;3600;48.568;7.870;2022-08-03T04:41:37;19.30;99.90
7117;DHT22;3600;48.568;7.870;2022-08-03T04:44:26;19.50;99.90
7117;DHT22;3600;48.568;7.870;2022-08-03T04:46:55;19.70;99.90
7117;DHT22;3600;48.568;7.870;2022-08-03T04:49:22;19.90;99.90
7117;DHT22;3600;48.568;7.870;2022-08-03T04:51:50;19.80;99.90
7117;DHT22;3600;48.568;7.870;2022-08-03T04:54:17;19.90;99.90
7117;DHT22;3600;48.568;7.870;2022-08-03T04:56:44;19.80;99.90
7117;DHT22;3600;48.568;7.870;2022-08-03T04:59:11;19.70;99.90
7117;DHT22;3600;48.568;7.870;2022-08-03T05:01:39;19.60;99.90
7117;DHT22;3600;48.568;7.870;2022-08-03T05:04:06;19.80;99.90
7117;DHT22;3600;48.568;7.870;2022-08-03T05:06:33;20.00;99.90
7117;DHT22;3600;48.568;7.870;2022-08-03T05:09:01;20.00;99.90
7117;DHT22;3600;48.568;7.870;2022-08-03T05:11:29;20.10;99.90
7117;DHT22;3600;48.568;7.870;2022-08-03T05:13:56;20.10;99.90
7117;DHT22;3600;48.568;7.870;2022-08-03T05:16:23;20.10;99.90
7117;DHT22;3600;48.568;7.870;2022-08-03T05:18:51;20.10;99.90
7117;DHT22;3600;48.568;7.870;2022-08-03T05:21:18;20.10;99.90
7117;DHT22;3600;48.568;7.870;2022-08-03T05:23:44;20.20;99.90
7117;DHT22;3600;48.568;7.870;2022-08-03T05:26:11;20.20;99.90
7117;DHT22;3600;48.568;7.870;2022-08-03T05:28:38;20.20;99.90
7117;DHT22;3600;48.568;7.870;2022-08-03T05:31:16;20.30;99.90
7117;DHT22;3600;48.568;7.870;2022-08-03T05:33:43;20.30;99.90
7117;DHT22;3600;48.568;7.870;2022-08-03T05:36:10;20.40;99.90
7117;DHT22;3600;48.568;7.870;2022-08-03T05:38:36;20.40;99.90
7117;DHT22;3600;48.568;7.870;2022-08-03T05:41:03;20.50;99.90
7117;DHT22;3600;48.568;7.870;2022-08-03T05:43:50;20.50;99.90
7117;DHT22;3600;48.568;7.870;2022-08-03T05:46:17;20.70;99.90
7117;DHT22;3600;48.568;7.870;2022-08-03T05:48:44;20.90;99.90
7117;DHT22;3600;48.568;7.870;2022-08-03T05:51:11;20.90;99.90
7117;DHT22;3600;48.568;7.870;2022-08-03T05:53:40;20.80;99.90
7117;DHT22;3600;48.568;7.870;2022-08-03T05:56:07;20.80;99.90
7117;DHT22;3600;48.568;7.870;2022-08-03T05:58:50;20.70;99.90
7117;DHT22;3600;48.568;7.870;2022-08-03T06:01:18;20.90;99.90
7117;DHT22;3600;48.568;7.870;2022-08-03T06:03:48;20.90;99.90
7117;DHT22;3600;48.568;7.870;2022-08-03T06:06:15;20.80;99.90
7117;DHT22;3600;48.568;7.870;2022-08-03T06:08:43;21.10;99.90
7117;DHT22;3600;48.568;7.870;2022-08-03T06:11:10;21.20;99.90
7117;DHT22;3600;48.568;7.870;2022-08-03T06:13:37;21.10;99.90
7117;DHT22;3600;48.568;7.870;2022-08-03T06:16:04;21.00;99.90
7117;DHT22;3600;48.568;7.870;2022-08-03T06:18:32;20.90;99.90
7117;DHT22;3600;48.568;7.870;2022-08-03T06:21:00;20.90;99.90
7117;DHT22;3600;48.568;7.870;2022-08-03T06:23:41;20.90;99.90
7117;DHT22;3600;48.568;7.870;2022-08-03T06:26:24;20.90;99.90
7117;DHT22;3600;48.568;7.870;2022-08-03T06:28:52;21.00;99.90
7117;DHT22;3600;48.568;7.870;2022-08-03T06:31:21;21.00;99.90
7117;DHT22;3600;48.568;7.870;2022-08-03T06:33:49;21.00;99.90
7117;DHT22;3600;48.568;7.870;2022-08-03T06:36:36;21.10;99.90
7117;DHT22;3600;48.568;7.870;2022-08-03T06:39:03;21.20;99.90
7117;DHT22;3600;48.568;7.870;2022-08-03T06:41:30;21.20;99.90
7117;DHT22;3600;48.568;7.870;2022-08-03T06:44:03;21.20;99.90
7117;DHT22;3600;48.568;7.870;2022-08-03T06:46:30;21.20;99.90
7117;DHT22;3600;48.568;7.870;2022-08-03T06:48:57;21.30;99.90
7117;DHT22;3600;48.568;7.870;2022-08-03T06:51:23;21.40;99.90
7117;DHT22;3600;48.568;7.870;2022-08-03T06:54:10;21.60;99.90
7117;DHT22;3600;48.568;7.870;2022-08-03T06:56:37;21.70;99.90
7117;DHT22;3600;48.568;7.870;2022-08-03T06:59:04;21.70;99.90
7117;DHT22;3600;48.568;7.870;2022-08-03T07:01:31;21.70;99.90
7117;DHT22;3600;48.568;7.870;2022-08-03T07:03:58;21.70;99.90
7117;DHT22;3600;48.568;7.870;2022-08-03T07:06:26;21.70;99.90
7117;DHT22;3600;48.568;7.870;2022-08-03T07:08:52;21.70;99.90
7117;DHT22;3600;48.568;7.870;2022-08-03T07:11:25;21.80;99.90
7117;DHT22;3600;48.568;7.870;2022-08-03T07:13:52;21.90;99.90
7117;DHT22;3600;48.568;7.870;2022-08-03T07:16:18;22.00;99.90
7117;DHT22;3600;48.568;7.870;2022-08-03T07:18:45;22.20;99.90
7117;DHT22;3600;48.568;7.870;2022-08-03T07:21:12;22.20;99.90
7117;DHT22;3600;48.568;7.870;2022-08-03T07:23:39;22.20;99.90
7117;DHT22;3600;48.568;7.870;2022-08-03T07:26:05;22.20;99.90
7117;DHT22;3600;48.568;7.870;2022-08-03T07:28:32;22.30;99.90
7117;DHT22;3600;48.568;7.870;2022-08-03T07:30:59;22.40;99.90
7117;DHT22;3600;48.568;7.870;2022-08-03T07:33:26;22.40;99.90
7117;DHT22;3600;48.568;7.870;2022-08-03T07:35:52;22.40;99.90
7117;DHT22;3600;48.568;7.870;2022-08-03T07:38:19;22.60;99.90
7117;DHT22;3600;48.568;7.870;2022-08-03T07:40:46;22.70;99.90
7117;DHT22;3600;48.568;7.870;2022-08-03T07:43:13;22.80;99.90
7117;DHT22;3600;48.568;7.870;2022-08-03T07:45:40;22.80;99.90
7117;DHT22;3600;48.568;7.870;2022-08-03T07:48:07;22.80;99.90
7117;DHT22;3600;48.568;7.870;2022-08-03T07:50:37;23.20;99.90
7117;DHT22;3600;48.568;7.870;2022-08-03T07:53:04;23.20;99.90
7117;DHT22;3600;48.568;7.870;2022-08-03T07:55:31;23.10;99.90
7117;DHT22;3600;48.568;7.870;2022-08-03T07:58:06;23.30;99.90
7117;DHT22;3600;48.568;7.870;2022-08-03T08:00:35;23.40;99.90
7117;DHT22;3600;48.568;7.870;2022-08-03T08:03:02;23.30;99.90
7117;DHT22;3600;48.568;7.870;2022-08-03T08:05:30;23.30;99.90
7117;DHT22;3600;48.568;7.870;2022-08-03T08:07:56;23.60;99.90
7117;DHT22;3600;48.568;7.870;2022-08-03T08:10:23;24.10;99.90
7117;DHT22;3600;48.568;7.870;2022-08-03T08:12:50;23.90;99.90
7117;DHT22;3600;48.568;7.870;2022-08-03T08:15:17;23.90;99.90
7117;DHT22;3600;48.568;7.870;2022-08-03T08:17:49;23.80;99.90
7117;DHT22;3600;48.568;7.870;2022-08-03T08:20:19;24.00;99.90
7117;DHT22;3600;48.568;7.870;2022-08-03T08:22:57;24.00;99.90
7117;DHT22;3600;48.568;7.870;2022-08-03T08:25:27;24.00;99.90
7117;DHT22;3600;48.568;7.870;2022-08-03T08:27:54;24.00;99.90
7117;DHT22;3600;48.568;7.870;2022-08-03T08:30:41;24.10;99.90
7117;DHT22;3600;48.568;7.870;2022-08-03T08:33:07;24.20;99.90
7117;DHT22;3600;48.568;7.870;2022-08-03T08:35:50;24.20;99.90
7117;DHT22;3600;48.568;7.870;2022-08-03T08:38:17;24.40;99.90
7117;DHT22;3600;48.568;7.870;2022-08-03T08:40:44;24.50;99.90
7117;DHT22;3600;48.568;7.870;2022-08-03T08:43:11;24.50;99.90
7117;DHT22;3600;48.568;7.870;2022-08-03T08:45:39;24.60;99.90
7117;DHT22;3600;48.568;7.870;2022-08-03T08:48:08;24.70;99.90
7117;DHT22;3600;48.568;7.870;2022-08-03T08:50:37;24.80;99.90
7117;DHT22;3600;48.568;7.870;2022-08-03T08:53:06;24.90;99.90
7117;DHT22;3600;48.568;7.870;2022-08-03T08:55:45;25.00;99.90
7117;DHT22;3600;48.568;7.870;2022-08-03T08:58:28;25.00;99.90
7117;DHT22;3600;48.568;7.870;2022-08-03T09:00:56;25.20;99.90
7117;DHT22;3600;48.568;7.870;2022-08-03T09:03:23;25.30;99.90
7117;DHT22;3600;48.568;7.870;2022-08-03T09:06:00;25.40;99.90
7117;DHT22;3600;48.568;7.870;2022-08-03T09:08:29;25.50;99.90
7117;DHT22;3600;48.568;7.870;2022-08-03T09:10:56;25.60;99.90
7117;DHT22;3600;48.568;7.870;2022-08-03T09:13:22;25.70;99.90
7117;DHT22;3600;48.568;7.870;2022-08-03T09:18:34;25.90;99.90
7117;DHT22;3600;48.568;7.870;2022-08-03T09:21:27;26.00;99.90
7117;DHT22;3600;48.568;7.870;2022-08-03T09:24:00;26.70;99.90
7117;DHT22;3600;48.568;7.870;2022-08-03T09:26:34;26.60;99.90
7117;DHT22;3600;48.568;7.870;2022-08-03T09:29:19;26.60;99.90
7117;DHT22;3600;48.568;7.870;2022-08-03T09:31:46;27.10;99.90
7117;DHT22;3600;48.568;7.870;2022-08-03T09:34:15;27.10;99.90
7117;DHT22;3600;48.568;7.870;2022-08-03T09:36:47;27.20;99.90
7117;DHT22;3600;48.568;7.870;2022-08-03T09:39:19;27.40;99.90
7117;DHT22;3600;48.568;7.870;2022-08-03T09:44:48;27.60;99.90
7117;DHT22;3600;48.568;7.870;2022-08-03T09:47:29;27.60;99.90
7117;DHT22;3600;48.568;7.870;2022-08-03T09:50:01;27.70;99.90
7117;DHT22;3600;48.568;7.870;2022-08-03T09:52:38;27.70;99.90
7117;DHT22;3600;48.568;7.870;2022-08-03T09:55:17;27.70;99.90
7117;DHT22;3600;48.568;7.870;2022-08-03T09:58:06;27.90;99.90
7117;DHT22;3600;48.568;7.870;2022-08-03T10:00:58;28.20;99.90
7117;DHT22;3600;48.568;7.870;2022-08-03T10:03:28;28.50;99.90
7117;DHT22;3600;48.568;7.870;2022-08-03T10:05:55;28.30;99.90
7117;DHT22;3600;48.568;7.870;2022-08-03T10:08:25;28.40;99.90
7117;DHT22;3600;48.568;7.870;2022-08-03T10:10:52;28.40;99.90
7117;DHT22;3600;48.568;7.870;2022-08-03T10:13:21;28.60;99.90
7117;DHT22;3600;48.568;7.870;2022-08-03T10:15:49;28.60;99.90
7117;DHT22;3600;48.568;7.870;2022-08-03T10:18:36;28.60;99.90
7117;DHT22;3600;48.568;7.870;2022-08-03T10:21:05;28.90;99.90
7117;DHT22;3600;48.568;7.870;2022-08-03T10:23:34;29.20;99.90
7117;DHT22;3600;48.568;7.870;2022-08-03T10:26:02;29.40;99.90
7117;DHT22;3600;48.568;7.870;2022-08-03T10:28:39;29.30;99.90
7117;DHT22;3600;48.568;7.870;2022-08-03T10:31:12;29.50;99.90
7117;DHT22;3600;48.568;7.870;2022-08-03T10:33:44;29.50;99.90
7117;DHT22;3600;48.568;7.870;2022-08-03T10:36:16;29.50;99.90
7117;DHT22;3600;48.568;7.870;2022-08-03T10:38:46;29.60;99.90
7117;DHT22;3600;48.568;7.870;2022-08-03T10:41:15;30.10;99.70
7117;DHT22;3600;48.568;7.870;2022-08-03T10:43:49;30.10;99.00
7117;DHT22;3600;48.568;7.870;2022-08-03T10:46:20;30.10;99.60
7117;DHT22;3600;48.568;7.870;2022-08-03T10:48:48;30.20;99.70
7117;DHT22;3600;48.568;7.870;2022-08-03T10:51:16;30.30;99.40
7117;DHT22;3600;48.568;7.870;2022-08-03T10:53:43;30.30;99.20
7117;DHT22;3600;48.568;7.870;2022-08-03T11:02:14;31.00;97.30
7117;DHT22;3600;48.568;7.870;2022-08-03T11:04:42;31.20;97.00
7117;DHT22;3600;48.568;7.870;2022-08-03T11:07:21;31.30;96.20
7117;DHT22;3600;48.568;7.870;2022-08-03T11:09:51;31.10;96.50
7117;DHT22;3600;48.568;7.870;2022-08-03T11:15:00;31.40;95.70
7117;DHT22;3600;48.568;7.870;2022-08-03T11:17:27;31.60;95.30
7117;DHT22;3600;48.568;7.870;2022-08-03T11:19:54;31.70;94.10
7117;DHT22;3600;48.568;7.870;2022-08-03T11:22:23;31.30;94.80
7117;DHT22;3600;48.568;7.870;2022-08-03T11:27:21;31.90;94.00
7117;DHT22;3600;48.568;7.870;2022-08-03T11:35:15;32.00;92.50
7117;DHT22;3600;48.568;7.870;2022-08-03T11:40:34;32.40;91.90
7117;DHT22;3600;48.568;7.870;2022-08-03T11:43:02;32.60;91.00
7117;DHT22;3600;48.568;7.870;2022-08-03T11:45:29;32.60;91.00
7117;DHT22;3600;48.568;7.870;2022-08-03T11:47:57;32.30;91.70
7117;DHT22;3600;48.568;7.870;2022-08-03T11:50:25;32.70;90.70
7117;DHT22;3600;48.568;7.870;2022-08-03T11:52:53;33.10;90.00
7117;DHT22;3600;48.568;7.870;2022-08-03T11:55:20;33.40;89.90
7117;DHT22;3600;48.568;7.870;2022-08-03T11:57:48;33.40;85.50
7117;DHT22;3600;48.568;7.870;2022-08-03T12:00:35;33.50;85.70
7117;DHT22;3600;48.568;7.870;2022-08-03T12:03:08;33.70;82.40
7117;DHT22;3600;48.568;7.870;2022-08-03T12:05:55;33.50;83.90
7117;DHT22;3600;48.568;7.870;2022-08-03T12:10:53;33.60;79.50
7117;DHT22;3600;48.568;7.870;2022-08-03T12:13:21;33.60;78.40
7117;DHT22;3600;48.568;7.870;2022-08-03T12:16:09;33.50;79.40
7117;DHT22;3600;48.568;7.870;2022-08-03T12:18:36;33.90;77.80
7117;DHT22;3600;48.568;7.870;2022-08-03T12:21:11;33.90;76.60
7117;DHT22;3600;48.568;7.870;2022-08-03T12:23:38;33.30;79.20
7117;DHT22;3600;48.568;7.870;2022-08-03T12:26:07;33.70;80.90
7117;DHT22;3600;48.568;7.870;2022-08-03T12:28:36;33.90;78.60
7117;DHT22;3600;48.568;7.870;2022-08-03T12:31:07;34.10;75.30
7117;DHT22;3600;48.568;7.870;2022-08-03T12:33:56;34.50;74.80
7117;DHT22;3600;48.568;7.870;2022-08-03T12:36:25;34.60;72.60
7117;DHT22;3600;48.568;7.870;2022-08-03T12:39:03;34.10;74.60
7117;DHT22;3600;48.568;7.870;2022-08-03T12:41:32;34.40;73.40
7117;DHT22;3600;48.568;7.870;2022-08-03T12:44:02;34.20;76.30
7117;DHT22;3600;48.568;7.870;2022-08-03T12:46:35;34.30;74.70
7117;DHT22;3600;48.568;7.870;2022-08-03T12:49:07;34.50;73.20
7117;DHT22;3600;48.568;7.870;2022-08-03T12:51:36;34.70;73.40
7117;DHT22;3600;48.568;7.870;2022-08-03T12:54:04;34.60;73.70
7117;DHT22;3600;48.568;7.870;2022-08-03T12:56:31;35.00;69.70
7117;DHT22;3600;48.568;7.870;2022-08-03T12:58:58;34.90;71.70
7117;DHT22;3600;48.568;7.870;2022-08-03T13:01:24;35.10;69.60
7117;DHT22;3600;48.568;7.870;2022-08-03T13:03:53;34.50;69.60
7117;DHT22;3600;48.568;7.870;2022-08-03T13:06:24;34.90;70.10
7117;DHT22;3600;48.568;7.870;2022-08-03T13:09:05;34.90;68.40
7117;DHT22;3600;48.568;7.870;2022-08-03T13:11:32;34.90;68.60
7117;DHT22;3600;48.568;7.870;2022-08-03T13:14:19;35.40;68.70
7117;DHT22;3600;48.568;7.870;2022-08-03T13:16:47;35.50;69.60
7117;DHT22;3600;48.568;7.870;2022-08-03T13:19:14;35.60;67.90
7117;DHT22;3600;48.568;7.870;2022-08-03T13:21:42;35.70;68.80
7117;DHT22;3600;48.568;7.870;2022-08-03T13:24:29;35.80;65.50
7117;DHT22;3600;48.568;7.870;2022-08-03T13:26:57;35.90;64.50
7117;DHT22;3600;48.568;7.870;2022-08-03T13:29:24;35.90;63.80
7117;DHT22;3600;48.568;7.870;2022-08-03T13:31:51;35.50;63.90
7117;DHT22;3600;48.568;7.870;2022-08-03T13:34:18;35.20;68.80
7117;DHT22;3600;48.568;7.870;2022-08-03T13:36:49;35.60;64.20
7117;DHT22;3600;48.568;7.870;2022-08-03T13:39:36;35.90;63.10
7117;DHT22;3600;48.568;7.870;2022-08-03T13:42:24;35.00;62.40
7117;DHT22;3600;48.568;7.870;2022-08-03T13:44:51;35.40;65.40
7117;DHT22;3600;48.568;7.870;2022-08-03T13:47:18;35.80;65.10
7117;DHT22;3600;48.568;7.870;2022-08-03T13:49:46;35.90;65.10
7117;DHT22;3600;48.568;7.870;2022-08-03T13:52:26;36.30;66.20
7117;DHT22;3600;48.568;7.870;2022-08-03T13:54:53;36.20;63.40
7117;DHT22;3600;48.568;7.870;2022-08-03T13:57:20;36.60;60.70
7117;DHT22;3600;48.568;7.870;2022-08-03T14:00:07;36.10;62.70
7117;DHT22;3600;48.568;7.870;2022-08-03T14:02:34;36.40;62.20
7117;DHT22;3600;48.568;7.870;2022-08-03T14:05:01;36.30;61.70
7117;DHT22;3600;48.568;7.870;2022-08-03T14:07:28;36.30;62.40
7117;DHT22;3600;48.568;7.870;2022-08-03T14:09:55;36.30;60.20
7117;DHT22;3600;48.568;7.870;2022-08-03T14:12:22;35.70;59.80
7117;DHT22;3600;48.568;7.870;2022-08-03T14:14:49;36.20;58.10
7117;DHT22;3600;48.568;7.870;2022-08-03T14:17:15;36.60;56.70
7117;DHT22;3600;48.568;7.870;2022-08-03T14:19:42;36.00;57.70
7117;DHT22;3600;48.568;7.870;2022-08-03T14:22:20;36.00;57.80
7117;DHT22;3600;48.568;7.870;2022-08-03T14:24:47;35.70;60.80
7117;DHT22;3600;48.568;7.870;2022-08-03T14:27:15;36.20;57.60
7117;DHT22;3600;48.568;7.870;2022-08-03T14:29:42;36.30;57.00
7117;DHT22;3600;48.568;7.870;2022-08-03T14:32:09;36.30;56.90
7117;DHT22;3600;48.568;7.870;2022-08-03T14:34:39;36.60;55.80
7117;DHT22;3600;48.568;7.870;2022-08-03T14:37:06;36.50;56.30
7117;DHT22;3600;48.568;7.870;2022-08-03T14:39:33;36.70;55.50
7117;DHT22;3600;48.568;7.870;2022-08-03T14:42:20;36.40;55.10
7117;DHT22;3600;48.568;7.870;2022-08-03T14:44:47;36.30;54.90
7117;DHT22;3600;48.568;7.870;2022-08-03T14:47:14;36.00;55.30
7117;DHT22;3600;48.568;7.870;2022-08-03T14:49:41;36.30;55.30
7117;DHT22;3600;48.568;7.870;2022-08-03T14:52:28;36.70;55.10
7117;DHT22;3600;48.568;7.870;2022-08-03T14:54:55;37.00;54.80
7117;DHT22;3600;48.568;7.870;2022-08-03T14:57:22;36.70;51.90
7117;DHT22;3600;48.568;7.870;2022-08-03T14:59:48;35.60;52.10
7117;DHT22;3600;48.568;7.870;2022-08-03T15:02:23;36.10;54.90
7117;DHT22;3600;48.568;7.870;2022-08-03T15:04:51;37.00;53.10
7117;DHT22;3600;48.568;7.870;2022-08-03T15:07:18;36.90;55.40
7117;DHT22;3600;48.568;7.870;2022-08-03T15:09:46;37.10;53.00
7117;DHT22;3600;48.568;7.870;2022-08-03T15:12:13;37.10;54.90
7117;DHT22;3600;48.568;7.870;2022-08-03T15:14:40;37.10;54.50
7117;DHT22;3600;48.568;7.870;2022-08-03T15:17:07;37.40;54.30
7117;DHT22;3600;48.568;7.870;2022-08-03T15:19:34;37.70;53.70
7117;DHT22;3600;48.568;7.870;2022-08-03T15:22:21;37.70;53.80
7117;DHT22;3600;48.568;7.870;2022-08-03T15:25:03;37.60;53.30
7117;DHT22;3600;48.568;7.870;2022-08-03T15:27:51;36.80;55.50
7117;DHT22;3600;48.568;7.870;2022-08-03T15:30:30;36.90;56.20
7117;DHT22;3600;48.568;7.870;2022-08-03T15:33:01;37.40;54.70
7117;DHT22;3600;48.568;7.870;2022-08-03T15:35:28;37.20;55.40
7117;DHT22;3600;48.568;7.870;2022-08-03T15:37:55;36.40;56.80
7117;DHT22;3600;48.568;7.870;2022-08-03T15:40:21;35.10;55.30
7117;DHT22;3600;48.568;7.870;2022-08-03T15:42:48;35.00;57.90
7117;DHT22;3600;48.568;7.870;2022-08-03T15:45:15;35.80;57.00
7117;DHT22;3600;48.568;7.870;2022-08-03T15:47:46;36.10;57.20
7117;DHT22;3600;48.568;7.870;2022-08-03T15:50:13;37.10;56.30
7117;DHT22;3600;48.568;7.870;2022-08-03T15:52:39;36.30;57.60
7117;DHT22;3600;48.568;7.870;2022-08-03T15:55:07;36.20;57.60
7117;DHT22;3600;48.568;7.870;2022-08-03T15:57:33;36.90;56.90
7117;DHT22;3600;48.568;7.870;2022-08-03T16:00:20;36.50;57.10
7117;DHT22;3600;48.568;7.870;2022-08-03T16:03:00;37.10;55.60
7117;DHT22;3600;48.568;7.870;2022-08-03T16:05:27;37.10;56.30
7117;DHT22;3600;48.568;7.870;2022-08-03T16:07:53;36.70;56.20
7117;DHT22;3600;48.568;7.870;2022-08-03T16:10:29;36.70;56.90
7117;DHT22;3600;48.568;7.870;2022-08-03T16:12:56;36.90;56.20
7117;DHT22;3600;48.568;7.870;2022-08-03T16:15:26;36.80;55.40
7117;DHT22;3600;48.568;7.870;2022-08-03T16:17:53;35.30;55.80
7117;DHT22;3600;48.568;7.870;2022-08-03T16:20:20;34.70;57.90
7117;DHT22;3600;48.568;7.870;2022-08-03T16:23:01;34.60;58.20
7117;DHT22;3600;48.568;7.870;2022-08-03T16:25:41;35.70;57.80
7117;DHT22;3600;48.568;7.870;2022-08-03T16:28:14;36.00;58.10
7117;DHT22;3600;48.568;7.870;2022-08-03T16:30:43;36.10;57.60
7117;DHT22;3600;48.568;7.870;2022-08-03T16:33:12;36.10;55.70
7117;DHT22;3600;48.568;7.870;2022-08-03T16:35:44;35.20;58.70
7117;DHT22;3600;48.568;7.870;2022-08-03T16:38:11;34.80;58.10
7117;DHT22;3600;48.568;7.870;2022-08-03T16:40:44;34.60;59.50
7117;DHT22;3600;48.568;7.870;2022-08-03T16:43:13;35.20;58.80
7117;DHT22;3600;48.568;7.870;2022-08-03T16:45:46;35.80;57.10
7117;DHT22;3600;48.568;7.870;2022-08-03T16:48:17;35.70;58.50
7117;DHT22;3600;48.568;7.870;2022-08-03T16:50:44;35.30;58.20
7117;DHT22;3600;48.568;7.870;2022-08-03T16:53:12;35.90;57.70
7117;DHT22;3600;48.568;7.870;2022-08-03T16:55:44;35.50;58.90
7117;DHT22;3600;48.568;7.870;2022-08-03T16:58:21;35.40;59.00
7117;DHT22;3600;48.568;7.870;2022-08-03T17:01:08;35.40;58.10
7117;DHT22;3600;48.568;7.870;2022-08-03T17:03:53;35.60;57.70
7117;DHT22;3600;48.568;7.870;2022-08-03T17:06:31;35.50;57.50